sensor_id;sensor_type;location;lat;lon;timestamp;temperature;humidity
43089;DHT22;28709;52.030;5.652;2022-09-03T00:02:21;18.20;69.20
43089;DHT22;28709;52.030;5.652;2022-09-03T00:05:22;18.10;69.20
43089;DHT22;28709;52.030;5.652;2022-09-03T00:08:02;18.10;69.50
43089;DHT22;28709;52.030;5.652;2022-09-03T00:10:52;18.00;69.50
43089;DHT22;28709;52.030;5.652;2022-09-03T00:13:34;18.00;69.70
43089;DHT22;28709;52.030;5.652;2022-09-03T00:16:03;18.00;69.70
43089;DHT22;28709;52.030;5.652;2022-09-03T00:18:36;17.90;69.80
43089;DHT22;28709;52.030;5.652;2022-09-03T00:21:22;17.90;69.90
43089;DHT22;28709;52.030;5.652;2022-09-03T00:23:51;17.90;70.00
43089;DHT22;28709;52.030;5.652;2022-09-03T00:26:28;17.80;70.00
43089;DHT22;28709;52.030;5.652;2022-09-03T00:29:06;17.80;70.30
43089;DHT22;28709;52.030;5.652;2022-09-03T00:31:41;17.80;70.40
43089;DHT22;28709;52.030;5.652;2022-09-03T00:34:29;17.80;70.60
43089;DHT22;28709;52.030;5.652;2022-09-03T00:36:57;17.70;70.60
43089;DHT22;28709;52.030;5.652;2022-09-03T00:39:25;17.70;70.80
43089;DHT22;28709;52.030;5.652;2022-09-03T00:41:58;17.70;70.90
43089;DHT22;28709;52.030;5.652;2022-09-03T00:50:35;17.60;71.20
43089;DHT22;28709;52.030;5.652;2022-09-03T00:53:33;17.60;71.20
43089;DHT22;28709;52.030;5.652;2022-09-03T01:04:52;17.50;71.40
43089;DHT22;28709;52.030;5.652;2022-09-03T01:11:02;17.50;71.50
43089;DHT22;28709;52.030;5.652;2022-09-03T01:22:24;17.50;71.80
43089;DHT22;28709;52.030;5.652;2022-09-03T01:30:32;17.50;71.70
43089;DHT22;28709;52.030;5.652;2022-09-03T01:33:27;17.50;71.80
43089;DHT22;28709;52.030;5.652;2022-09-03T01:36:14;17.50;71.80
43089;DHT22;28709;52.030;5.652;2022-09-03T01:38:48;17.50;71.80
43089;DHT22;28709;52.030;5.652;2022-09-03T01:49:54;17.40;71.90
43089;DHT22;28709;52.030;5.652;2022-09-03T01:52:52;17.40;72.10
43089;DHT22;28709;52.030;5.652;2022-09-03T01:55:32;17.40;72.10
43089;DHT22;28709;52.030;5.652;2022-09-03T01:58:22;17.40;72.10
43089;DHT22;28709;52.030;5.652;2022-09-03T02:00:55;17.40;72.20
43089;DHT22;28709;52.030;5.652;2022-09-03T02:03:24;17.40;72.20
43089;DHT22;28709;52.030;5.652;2022-09-03T02:05:51;17.40;72.40
43089;DHT22;28709;52.030;5.652;2022-09-03T02:08:18;17.30;72.40
43089;DHT22;28709;52.030;5.652;2022-09-03T02:10:49;17.30;72.50
43089;DHT22;28709;52.030;5.652;2022-09-03T02:15:51;17.30;72.60
43089;DHT22;28709;52.030;5.652;2022-09-03T02:18:24;17.20;72.80
43089;DHT22;28709;52.030;5.652;2022-09-03T02:20:54;17.20;73.00
43089;DHT22;28709;52.030;5.652;2022-09-03T02:23:22;17.20;73.00
43089;DHT22;28709;52.030;5.652;2022-09-03T02:25:51;17.20;72.90
43089;DHT22;28709;52.030;5.652;2022-09-03T02:28:19;17.20;72.90
43089;DHT22;28709;52.030;5.652;2022-09-03T02:30:45;17.20;73.00
43089;DHT22;28709;52.030;5.652;2022-09-03T02:33:11;17.10;73.00
43089;DHT22;28709;52.030;5.652;2022-09-03T02:35:38;17.10;73.10
43089;DHT22;28709;52.030;5.652;2022-09-03T02:38:16;17.10;73.10
43089;DHT22;28709;52.030;5.652;2022-09-03T02:40:43;17.10;73.20
43089;DHT22;28709;52.030;5.652;2022-09-03T02:43:16;17.10;73.30
43089;DHT22;28709;52.030;5.652;2022-09-03T02:45:47;17.10;73.40
43089;DHT22;28709;52.030;5.652;2022-09-03T02:48:17;17.00;73.30
43089;DHT22;28709;52.030;5.652;2022-09-03T02:50:46;17.00;73.50
43089;DHT22;28709;52.030;5.652;2022-09-03T02:53:11;17.00;73.50
43089;DHT22;28709;52.030;5.652;2022-09-03T02:55:37;17.00;73.60
43089;DHT22;28709;52.030;5.652;2022-09-03T02:58:02;17.00;73.60
43089;DHT22;28709;52.030;5.652;2022-09-03T03:00:31;17.00;73.70
43089;DHT22;28709;52.030;5.652;2022-09-03T03:02:57;17.00;73.70
43089;DHT22;28709;52.030;5.652;2022-09-03T03:05:49;16.90;73.80
43089;DHT22;28709;52.030;5.652;2022-09-03T03:08:17;16.90;74.50
43089;DHT22;28709;52.030;5.652;2022-09-03T03:10:48;16.90;73.90
43089;DHT22;28709;52.030;5.652;2022-09-03T03:13:15;16.90;74.00
43089;DHT22;28709;52.030;5.652;2022-09-03T03:15:42;16.80;74.10
43089;DHT22;28709;52.030;5.652;2022-09-03T03:18:08;16.80;74.20
43089;DHT22;28709;52.030;5.652;2022-09-03T03:20:37;16.80;74.20
43089;DHT22;28709;52.030;5.652;2022-09-03T03:23:04;16.70;74.20
43089;DHT22;28709;52.030;5.652;2022-09-03T03:25:37;16.70;74.30
43089;DHT22;28709;52.030;5.652;2022-09-03T03:28:04;16.70;75.00
43089;DHT22;28709;52.030;5.652;2022-09-03T03:30:30;16.70;74.40
43089;DHT22;28709;52.030;5.652;2022-09-03T03:32:56;16.70;74.40
43089;DHT22;28709;52.030;5.652;2022-09-03T03:35:22;16.70;74.50
43089;DHT22;28709;52.030;5.652;2022-09-03T03:37:48;16.70;74.50
43089;DHT22;28709;52.030;5.652;2022-09-03T03:40:14;16.70;74.50
43089;DHT22;28709;52.030;5.652;2022-09-03T03:42:40;16.70;74.60
43089;DHT22;28709;52.030;5.652;2022-09-03T03:45:07;16.70;74.70
43089;DHT22;28709;52.030;5.652;2022-09-03T03:47:35;16.70;74.70
43089;DHT22;28709;52.030;5.652;2022-09-03T03:50:01;16.70;74.70
43089;DHT22;28709;52.030;5.652;2022-09-03T03:52:27;16.70;74.60
43089;DHT22;28709;52.030;5.652;2022-09-03T03:54:53;16.70;74.80
43089;DHT22;28709;52.030;5.652;2022-09-03T03:57:20;16.70;74.70
43089;DHT22;28709;52.030;5.652;2022-09-03T03:59:46;16.70;74.70
43089;DHT22;28709;52.030;5.652;2022-09-03T04:02:13;16.70;74.70
43089;DHT22;28709;52.030;5.652;2022-09-03T04:04:39;16.70;74.80
43089;DHT22;28709;52.030;5.652;2022-09-03T04:07:05;16.70;74.80
43089;DHT22;28709;52.030;5.652;2022-09-03T04:09:31;16.70;74.80
43089;DHT22;28709;52.030;5.652;2022-09-03T04:11:56;16.70;74.90
43089;DHT22;28709;52.030;5.652;2022-09-03T04:14:23;16.70;74.90
43089;DHT22;28709;52.030;5.652;2022-09-03T04:16:49;16.70;75.00
43089;DHT22;28709;52.030;5.652;2022-09-03T04:19:16;16.60;74.90
43089;DHT22;28709;52.030;5.652;2022-09-03T04:21:42;16.60;74.90
43089;DHT22;28709;52.030;5.652;2022-09-03T04:24:08;16.60;75.00
43089;DHT22;28709;52.030;5.652;2022-09-03T04:26:34;16.60;75.00
43089;DHT22;28709;52.030;5.652;2022-09-03T04:29:08;16.60;74.90
43089;DHT22;28709;52.030;5.652;2022-09-03T04:31:35;16.60;74.90
43089;DHT22;28709;52.030;5.652;2022-09-03T04:34:01;16.60;75.00
43089;DHT22;28709;52.030;5.652;2022-09-03T04:36:29;16.60;75.10
43089;DHT22;28709;52.030;5.652;2022-09-03T04:38:58;16.60;75.00
43089;DHT22;28709;52.030;5.652;2022-09-03T04:41:28;16.60;75.10
43089;DHT22;28709;52.030;5.652;2022-09-03T04:43:56;16.60;75.10
43089;DHT22;28709;52.030;5.652;2022-09-03T04:46:25;16.50;75.10
43089;DHT22;28709;52.030;5.652;2022-09-03T04:48:53;16.50;75.10
43089;DHT22;28709;52.030;5.652;2022-09-03T04:51:21;16.50;75.10
43089;DHT22;28709;52.030;5.652;2022-09-03T04:53:55;16.50;75.10
43089;DHT22;28709;52.030;5.652;2022-09-03T04:56:25;16.50;75.20
43089;DHT22;28709;52.030;5.652;2022-09-03T04:59:03;16.40;75.20
43089;DHT22;28709;52.030;5.652;2022-09-03T05:01:30;16.40;75.40
43089;DHT22;28709;52.030;5.652;2022-09-03T05:03:57;16.40;75.40
43089;DHT22;28709;52.030;5.652;2022-09-03T05:06:24;16.40;75.50
43089;DHT22;28709;52.030;5.652;2022-09-03T05:08:51;16.40;75.60
43089;DHT22;28709;52.030;5.652;2022-09-03T05:11:18;16.30;75.60
43089;DHT22;28709;52.030;5.652;2022-09-03T05:13:52;16.30;75.70
43089;DHT22;28709;52.030;5.652;2022-09-03T05:16:19;16.30;75.70
43089;DHT22;28709;52.030;5.652;2022-09-03T05:18:45;16.30;75.70
43089;DHT22;28709;52.030;5.652;2022-09-03T05:21:16;16.30;75.70
43089;DHT22;28709;52.030;5.652;2022-09-03T05:23:45;16.30;75.70
43089;DHT22;28709;52.030;5.652;2022-09-03T05:26:13;16.30;75.70
43089;DHT22;28709;52.030;5.652;2022-09-03T05:28:41;16.40;75.80
43089;DHT22;28709;52.030;5.652;2022-09-03T05:31:11;16.30;75.70
43089;DHT22;28709;52.030;5.652;2022-09-03T05:33:39;16.40;75.90
43089;DHT22;28709;52.030;5.652;2022-09-03T05:36:11;16.40;75.90
43089;DHT22;28709;52.030;5.652;2022-09-03T05:38:37;16.40;75.90
43089;DHT22;28709;52.030;5.652;2022-09-03T05:41:08;16.40;75.90
43089;DHT22;28709;52.030;5.652;2022-09-03T05:43:34;16.40;76.00
43089;DHT22;28709;52.030;5.652;2022-09-03T05:46:02;16.40;76.10
43089;DHT22;28709;52.030;5.652;2022-09-03T05:48:29;16.40;76.10
43089;DHT22;28709;52.030;5.652;2022-09-03T05:51:14;16.40;76.20
43089;DHT22;28709;52.030;5.652;2022-09-03T05:53:42;16.40;76.40
43089;DHT22;28709;52.030;5.652;2022-09-03T05:56:10;16.40;76.40
43089;DHT22;28709;52.030;5.652;2022-09-03T05:58:41;16.40;76.40
43089;DHT22;28709;52.030;5.652;2022-09-03T06:01:11;16.40;76.50
43089;DHT22;28709;52.030;5.652;2022-09-03T06:03:39;16.30;76.40
43089;DHT22;28709;52.030;5.652;2022-09-03T06:06:05;16.40;76.40
43089;DHT22;28709;52.030;5.652;2022-09-03T06:08:31;16.40;76.40
43089;DHT22;28709;52.030;5.652;2022-09-03T06:10:58;16.50;76.40
43089;DHT22;28709;52.030;5.652;2022-09-03T06:13:24;16.50;76.40
43089;DHT22;28709;52.030;5.652;2022-09-03T06:15:54;16.60;76.40
43089;DHT22;28709;52.030;5.652;2022-09-03T06:18:20;16.60;77.00
43089;DHT22;28709;52.030;5.652;2022-09-03T06:20:53;16.70;76.30
43089;DHT22;28709;52.030;5.652;2022-09-03T06:23:19;16.80;76.30
43089;DHT22;28709;52.030;5.652;2022-09-03T06:25:45;16.80;76.20
43089;DHT22;28709;52.030;5.652;2022-09-03T06:28:10;16.90;76.10
43089;DHT22;28709;52.030;5.652;2022-09-03T06:30:36;17.00;75.90
43089;DHT22;28709;52.030;5.652;2022-09-03T06:33:01;17.10;75.90
43089;DHT22;28709;52.030;5.652;2022-09-03T06:35:27;17.20;75.80
43089;DHT22;28709;52.030;5.652;2022-09-03T06:37:53;17.30;75.70
43089;DHT22;28709;52.030;5.652;2022-09-03T06:40:18;17.40;75.40
43089;DHT22;28709;52.030;5.652;2022-09-03T06:42:55;17.60;75.40
43089;DHT22;28709;52.030;5.652;2022-09-03T06:45:26;17.70;75.20
43089;DHT22;28709;52.030;5.652;2022-09-03T06:47:53;17.90;74.70
43089;DHT22;28709;52.030;5.652;2022-09-03T06:50:19;18.10;74.20
43089;DHT22;28709;52.030;5.652;2022-09-03T06:52:50;18.20;74.00
43089;DHT22;28709;52.030;5.652;2022-09-03T06:55:17;18.40;73.80
43089;DHT22;28709;52.030;5.652;2022-09-03T06:57:43;18.50;73.50
43089;DHT22;28709;52.030;5.652;2022-09-03T07:00:09;18.70;73.50
43089;DHT22;28709;52.030;5.652;2022-09-03T07:02:35;18.90;72.60
43089;DHT22;28709;52.030;5.652;2022-09-03T07:05:00;19.10;72.20
43089;DHT22;28709;52.030;5.652;2022-09-03T07:07:26;19.40;72.00
43089;DHT22;28709;52.030;5.652;2022-09-03T07:09:52;19.60;71.70
43089;DHT22;28709;52.030;5.652;2022-09-03T07:12:17;19.80;71.60
43089;DHT22;28709;52.030;5.652;2022-09-03T07:14:45;20.10;71.20
43089;DHT22;28709;52.030;5.652;2022-09-03T07:17:11;20.40;70.20
43089;DHT22;28709;52.030;5.652;2022-09-03T07:19:36;20.80;69.20
43089;DHT22;28709;52.030;5.652;2022-09-03T07:22:02;21.10;68.90
43089;DHT22;28709;52.030;5.652;2022-09-03T07:24:27;21.30;68.60
43089;DHT22;28709;52.030;5.652;2022-09-03T07:26:53;21.50;67.80
43089;DHT22;28709;52.030;5.652;2022-09-03T07:29:19;21.60;66.20
43089;DHT22;28709;52.030;5.652;2022-09-03T07:31:45;21.70;66.10
43089;DHT22;28709;52.030;5.652;2022-09-03T07:34:12;21.70;65.80
43089;DHT22;28709;52.030;5.652;2022-09-03T07:36:43;21.70;65.90
43089;DHT22;28709;52.030;5.652;2022-09-03T07:39:12;21.90;66.00
43089;DHT22;28709;52.030;5.652;2022-09-03T07:41:38;22.00;65.20
43089;DHT22;28709;52.030;5.652;2022-09-03T07:44:08;22.00;64.70
43089;DHT22;28709;52.030;5.652;2022-09-03T07:46:35;22.10;64.90
43089;DHT22;28709;52.030;5.652;2022-09-03T07:49:03;22.10;64.50
43089;DHT22;28709;52.030;5.652;2022-09-03T07:51:31;22.20;64.60
43089;DHT22;28709;52.030;5.652;2022-09-03T07:53:59;22.20;63.90
43089;DHT22;28709;52.030;5.652;2022-09-03T07:56:27;22.20;63.60
43089;DHT22;28709;52.030;5.652;2022-09-03T07:58:56;22.20;64.00
43089;DHT22;28709;52.030;5.652;2022-09-03T08:01:23;22.20;64.10
43089;DHT22;28709;52.030;5.652;2022-09-03T08:03:50;22.30;64.30
43089;DHT22;28709;52.030;5.652;2022-09-03T08:06:19;22.40;63.90
43089;DHT22;28709;52.030;5.652;2022-09-03T08:08:45;22.60;64.00
43089;DHT22;28709;52.030;5.652;2022-09-03T08:11:19;22.80;63.60
43089;DHT22;28709;52.030;5.652;2022-09-03T08:14:02;23.00;63.70
43089;DHT22;28709;52.030;5.652;2022-09-03T08:16:38;23.20;63.50
43089;DHT22;28709;52.030;5.652;2022-09-03T08:19:06;23.50;63.40
43089;DHT22;28709;52.030;5.652;2022-09-03T08:21:31;23.80;62.20
43089;DHT22;28709;52.030;5.652;2022-09-03T08:23:57;23.90;61.50
43089;DHT22;28709;52.030;5.652;2022-09-03T08:26:34;23.90;61.50
43089;DHT22;28709;52.030;5.652;2022-09-03T08:29:00;23.90;61.10
43089;DHT22;28709;52.030;5.652;2022-09-03T08:31:26;24.00;61.10
43089;DHT22;28709;52.030;5.652;2022-09-03T08:33:54;24.00;60.80
43089;DHT22;28709;52.030;5.652;2022-09-03T08:36:24;23.90;60.80
43089;DHT22;28709;52.030;5.652;2022-09-03T08:38:51;23.90;61.30
43089;DHT22;28709;52.030;5.652;2022-09-03T08:52:23;24.10;61.00
43089;DHT22;28709;52.030;5.652;2022-09-03T08:54:53;24.20;60.80
43089;DHT22;28709;52.030;5.652;2022-09-03T08:57:20;24.30;60.90
43089;DHT22;28709;52.030;5.652;2022-09-03T08:59:48;24.40;61.30
43089;DHT22;28709;52.030;5.652;2022-09-03T09:02:55;24.50;60.50
43089;DHT22;28709;52.030;5.652;2022-09-03T09:05:45;24.60;60.60
43089;DHT22;28709;52.030;5.652;2022-09-03T09:08:19;24.70;60.50
43089;DHT22;28709;52.030;5.652;2022-09-03T09:11:15;25.00;60.60
43089;DHT22;28709;52.030;5.652;2022-09-03T09:21:30;25.80;59.40
43089;DHT22;28709;52.030;5.652;2022-09-03T09:24:03;26.10;59.50
43089;DHT22;28709;52.030;5.652;2022-09-03T09:26:33;26.20;59.00
43089;DHT22;28709;52.030;5.652;2022-09-03T09:29:06;26.40;59.10
43089;DHT22;28709;52.030;5.652;2022-09-03T09:31:34;26.50;58.10
43089;DHT22;28709;52.030;5.652;2022-09-03T09:34:07;26.60;57.60
43089;DHT22;28709;52.030;5.652;2022-09-03T09:36:48;26.70;57.30
43089;DHT22;28709;52.030;5.652;2022-09-03T09:39:14;26.70;57.70
43089;DHT22;28709;52.030;5.652;2022-09-03T09:41:41;26.70;57.80
43089;DHT22;28709;52.030;5.652;2022-09-03T09:44:07;27.00;58.30
43089;DHT22;28709;52.030;5.652;2022-09-03T09:46:37;27.40;57.90
43089;DHT22;28709;52.030;5.652;2022-09-03T09:52:04;28.00;56.60
43089;DHT22;28709;52.030;5.652;2022-09-03T09:54:31;28.20;56.20
43089;DHT22;28709;52.030;5.652;2022-09-03T09:57:05;28.20;56.00
43089;DHT22;28709;52.030;5.652;2022-09-03T09:59:31;28.30;56.60
43089;DHT22;28709;52.030;5.652;2022-09-03T10:02:14;28.50;56.20
43089;DHT22;28709;52.030;5.652;2022-09-03T10:04:44;28.50;55.50
43089;DHT22;28709;52.030;5.652;2022-09-03T10:07:28;28.40;55.80
43089;DHT22;28709;52.030;5.652;2022-09-03T10:12:47;28.60;55.40
43089;DHT22;28709;52.030;5.652;2022-09-03T10:15:22;28.70;54.80
43089;DHT22;28709;52.030;5.652;2022-09-03T10:18:01;28.70;54.80
43089;DHT22;28709;52.030;5.652;2022-09-03T10:20:48;28.60;54.80
43089;DHT22;28709;52.030;5.652;2022-09-03T10:23:21;28.60;54.40
43089;DHT22;28709;52.030;5.652;2022-09-03T10:25:54;28.40;54.30
43089;DHT22;28709;52.030;5.652;2022-09-03T10:28:26;28.40;54.60
43089;DHT22;28709;52.030;5.652;2022-09-03T10:33:48;28.50;54.30
43089;DHT22;28709;52.030;5.652;2022-09-03T10:36:17;28.60;54.60
43089;DHT22;28709;52.030;5.652;2022-09-03T10:38:52;28.70;54.10
43089;DHT22;28709;52.030;5.652;2022-09-03T10:44:17;28.50;54.20
43089;DHT22;28709;52.030;5.652;2022-09-03T10:47:18;28.50;54.70
43089;DHT22;28709;52.030;5.652;2022-09-03T11:00:53;28.90;54.00
43089;DHT22;28709;52.030;5.652;2022-09-03T11:03:41;28.90;54.00
43089;DHT22;28709;52.030;5.652;2022-09-03T11:08:46;28.70;53.90
43089;DHT22;28709;52.030;5.652;2022-09-03T11:11:18;28.70;54.40
43089;DHT22;28709;52.030;5.652;2022-09-03T11:13:47;28.70;54.50
43089;DHT22;28709;52.030;5.652;2022-09-03T11:16:43;29.00;54.50
43089;DHT22;28709;52.030;5.652;2022-09-03T11:19:13;29.20;54.30
43089;DHT22;28709;52.030;5.652;2022-09-03T11:21:41;29.20;53.00
43089;DHT22;28709;52.030;5.652;2022-09-03T11:24:27;28.90;53.20
43089;DHT22;28709;52.030;5.652;2022-09-03T11:31:03;28.60;53.80
43089;DHT22;28709;52.030;5.652;2022-09-03T11:33:22;28.40;53.70
43089;DHT22;28709;52.030;5.652;2022-09-03T11:35:59;28.20;53.90
43089;DHT22;28709;52.030;5.652;2022-09-03T11:38:28;28.30;54.40
43089;DHT22;28709;52.030;5.652;2022-09-03T11:41:13;28.60;54.50
43089;DHT22;28709;52.030;5.652;2022-09-03T11:43:41;28.90;54.30
43089;DHT22;28709;52.030;5.652;2022-09-03T11:46:30;29.10;54.40
43089;DHT22;28709;52.030;5.652;2022-09-03T11:49:09;29.10;54.10
43089;DHT22;28709;52.030;5.652;2022-09-03T11:51:37;29.40;53.80
43089;DHT22;28709;52.030;5.652;2022-09-03T11:56:40;29.70;53.40
43089;DHT22;28709;52.030;5.652;2022-09-03T12:01:50;29.80;52.40
43089;DHT22;28709;52.030;5.652;2022-09-03T12:04:19;29.70;52.20
43089;DHT22;28709;52.030;5.652;2022-09-03T12:17:58;29.40;52.40
43089;DHT22;28709;52.030;5.652;2022-09-03T12:20:59;29.50;52.60
43089;DHT22;28709;52.030;5.652;2022-09-03T12:23:54;29.20;52.40
43089;DHT22;28709;52.030;5.652;2022-09-03T12:26:25;29.10;52.90
43089;DHT22;28709;52.030;5.652;2022-09-03T12:29:00;29.00;52.90
43089;DHT22;28709;52.030;5.652;2022-09-03T12:31:29;29.00;53.00
43089;DHT22;28709;52.030;5.652;2022-09-03T12:36:24;28.80;53.10
43089;DHT22;28709;52.030;5.652;2022-09-03T12:38:50;28.80;53.20
43089;DHT22;28709;52.030;5.652;2022-09-03T12:41:28;28.90;53.50
43089;DHT22;28709;52.030;5.652;2022-09-03T12:43:57;29.30;53.60
43089;DHT22;28709;52.030;5.652;2022-09-03T12:46:26;29.50;52.90
43089;DHT22;28709;52.030;5.652;2022-09-03T12:48:54;29.50;53.30
43089;DHT22;28709;52.030;5.652;2022-09-03T12:51:20;29.70;52.70
43089;DHT22;28709;52.030;5.652;2022-09-03T12:53:48;29.60;53.00
43089;DHT22;28709;52.030;5.652;2022-09-03T12:56:15;29.80;53.20
43089;DHT22;28709;52.030;5.652;2022-09-03T12:58:58;29.90;53.10
43089;DHT22;28709;52.030;5.652;2022-09-03T13:01:32;30.10;53.10
43089;DHT22;28709;52.030;5.652;2022-09-03T13:04:04;30.30;52.90
43089;DHT22;28709;52.030;5.652;2022-09-03T13:06:54;30.40;52.20
43089;DHT22;28709;52.030;5.652;2022-09-03T13:09:25;30.30;51.90
43089;DHT22;28709;52.030;5.652;2022-09-03T13:11:55;30.30;52.20
43089;DHT22;28709;52.030;5.652;2022-09-03T13:14:25;30.10;52.40
43089;DHT22;28709;52.030;5.652;2022-09-03T13:17:09;29.90;52.30
43089;DHT22;28709;52.030;5.652;2022-09-03T13:19:57;29.50;52.80
43089;DHT22;28709;52.030;5.652;2022-09-03T13:23:10;29.40;53.40
43089;DHT22;28709;52.030;5.652;2022-09-03T13:25:56;29.30;54.00
43089;DHT22;28709;52.030;5.652;2022-09-03T13:33:53;28.90;54.10
43089;DHT22;28709;52.030;5.652;2022-09-03T13:36:27;28.80;54.10
43089;DHT22;28709;52.030;5.652;2022-09-03T13:39:04;28.60;54.70
43089;DHT22;28709;52.030;5.652;2022-09-03T13:44:23;28.20;55.20
43089;DHT22;28709;52.030;5.652;2022-09-03T13:47:27;28.10;55.60
43089;DHT22;28709;52.030;5.652;2022-09-03T13:50:16;28.00;55.70
43089;DHT22;28709;52.030;5.652;2022-09-03T13:58:32;27.80;55.80
43089;DHT22;28709;52.030;5.652;2022-09-03T14:03:51;27.60;55.60
43089;DHT22;28709;52.030;5.652;2022-09-03T14:06:40;27.60;56.00
43089;DHT22;28709;52.030;5.652;2022-09-03T14:09:29;27.60;56.30
43089;DHT22;28709;52.030;5.652;2022-09-03T14:14:51;27.60;56.30
43089;DHT22;28709;52.030;5.652;2022-09-03T14:25:34;27.50;56.60
43089;DHT22;28709;52.030;5.652;2022-09-03T14:28:14;27.40;56.80
43089;DHT22;28709;52.030;5.652;2022-09-03T14:33:45;27.40;56.60
43089;DHT22;28709;52.030;5.652;2022-09-03T14:36:29;27.30;56.80
43089;DHT22;28709;52.030;5.652;2022-09-03T14:44:49;27.30;56.70
43089;DHT22;28709;52.030;5.652;2022-09-03T14:55:28;27.20;56.20
43089;DHT22;28709;52.030;5.652;2022-09-03T14:58:11;27.20;55.90
43089;DHT22;28709;52.030;5.652;2022-09-03T15:00:59;27.10;56.20
43089;DHT22;28709;52.030;5.652;2022-09-03T15:09:31;27.10;56.30
43089;DHT22;28709;52.030;5.652;2022-09-03T15:12:02;27.10;56.50
43089;DHT22;28709;52.030;5.652;2022-09-03T15:14:34;27.20;56.60
43089;DHT22;28709;52.030;5.652;2022-09-03T15:28:53;27.40;56.00
43089;DHT22;28709;52.030;5.652;2022-09-03T15:34:17;27.20;55.50
43089;DHT22;28709;52.030;5.652;2022-09-03T15:36:50;27.10;55.80
43089;DHT22;28709;52.030;5.652;2022-09-03T15:39:36;27.10;56.00
43089;DHT22;28709;52.030;5.652;2022-09-03T15:42:16;27.10;56.10
43089;DHT22;28709;52.030;5.652;2022-09-03T15:44:53;27.10;56.20
43089;DHT22;28709;52.030;5.652;2022-09-03T15:47:55;27.10;56.30
43089;DHT22;28709;52.030;5.652;2022-09-03T15:50:34;27.10;55.90
43089;DHT22;28709;52.030;5.652;2022-09-03T15:55:37;27.10;55.80
43089;DHT22;28709;52.030;5.652;2022-09-03T16:00:52;27.00;55.90
43089;DHT22;28709;52.030;5.652;2022-09-03T16:03:32;27.00;55.80
43089;DHT22;28709;52.030;5.652;2022-09-03T16:06:05;27.00;55.60
43089;DHT22;28709;52.030;5.652;2022-09-03T16:11:40;27.00;55.30
43089;DHT22;28709;52.030;5.652;2022-09-03T16:14:27;27.00;55.10
43089;DHT22;28709;52.030;5.652;2022-09-03T16:17:25;27.00;55.30
43089;DHT22;28709;52.030;5.652;2022-09-03T16:22:29;26.90;55.20
43089;DHT22;28709;52.030;5.652;2022-09-03T16:25:08;26.90;55.30
43089;DHT22;28709;52.030;5.652;2022-09-03T16:28:14;26.90;55.30
43089;DHT22;28709;52.030;5.652;2022-09-03T16:30:51;26.80;55.10
43089;DHT22;28709;52.030;5.652;2022-09-03T16:33:50;26.80;55.10
43089;DHT22;28709;52.030;5.652;2022-09-03T16:36:43;26.80;55.10
43089;DHT22;28709;52.030;5.652;2022-09-03T16:39:23;26.80;55.20
43089;DHT22;28709;52.030;5.652;2022-09-03T16:53:00;26.70;56.10
43089;DHT22;28709;52.030;5.652;2022-09-03T17:12:24;26.40;57.90
43089;DHT22;28709;52.030;5.652;2022-09-03T17:15:02;26.40;57.40
43089;DHT22;28709;52.030;5.652;2022-09-03T17:18:18;26.30;57.50
43089;DHT22;28709;52.030;5.652;2022-09-03T17:26:23;26.30;58.10
43089;DHT22;28709;52.030;5.652;2022-09-03T17:34:43;26.10;58.20
43089;DHT22;28709;52.030;5.652;2022-09-03T17:48:46;25.90;58.60
43089;DHT22;28709;52.030;5.652;2022-09-03T17:59:46;25.80;58.90
43089;DHT22;28709;52.030;5.652;2022-09-03T18:02:36;25.80;59.10
43089;DHT22;28709;52.030;5.652;2022-09-03T18:05:22;25.70;59.20
43089;DHT22;28709;52.030;5.652;2022-09-03T18:11:06;25.60;59.40
43089;DHT22;28709;52.030;5.652;2022-09-03T18:18:30;25.40;59.60
43089;DHT22;28709;52.030;5.652;2022-09-03T18:21:01;25.40;59.70
43089;DHT22;28709;52.030;5.652;2022-09-03T18:26:59;25.20;60.10
43089;DHT22;28709;52.030;5.652;2022-09-03T18:30:08;25.20;60.30
43089;DHT22;28709;52.030;5.652;2022-09-03T18:32:53;25.00;60.60
43089;DHT22;28709;52.030;5.652;2022-09-03T18:35:38;25.00;60.70
43089;DHT22;28709;52.030;5.652;2022-09-03T18:38:26;24.90;60.90
43089;DHT22;28709;52.030;5.652;2022-09-03T18:56:53;24.30;62.50
43089;DHT22;28709;52.030;5.652;2022-09-03T19:12:35;23.80;64.10
43089;DHT22;28709;52.030;5.652;2022-09-03T19:15:40;23.70;64.30
43089;DHT22;28709;52.030;5.652;2022-09-03T19:21:33;23.60;64.80
43089;DHT22;28709;52.030;5.652;2022-09-03T19:24:26;23.50;65.10
43089;DHT22;28709;52.030;5.652;2022-09-03T19:27:35;23.40;65.20
43089;DHT22;28709;52.030;5.652;2022-09-03T19:33:37;23.30;65.60
43089;DHT22;28709;52.030;5.652;2022-09-03T19:52:22;22.80;67.50
43089;DHT22;28709;52.030;5.652;2022-09-03T19:55:11;22.70;67.90
43089;DHT22;28709;52.030;5.652;2022-09-03T19:58:00;22.60;67.90
43089;DHT22;28709;52.030;5.652;2022-09-03T20:00:44;22.60;68.10
43089;DHT22;28709;52.030;5.652;2022-09-03T20:03:29;22.50;68.20
43089;DHT22;28709;52.030;5.652;2022-09-03T20:06:14;22.50;68.40
43089;DHT22;28709;52.030;5.652;2022-09-03T20:09:04;22.40;68.50
43089;DHT22;28709;52.030;5.652;2022-09-03T20:11:52;22.40;68.70
43089;DHT22;28709;52.030;5.652;2022-09-03T20:14:18;22.40;69.00
43089;DHT22;28709;52.030;5.652;2022-09-03T20:27:27;22.10;70.00
43089;DHT22;28709;52.030;5.652;2022-09-03T20:30:09;22.00;70.20
43089;DHT22;28709;52.030;5.652;2022-09-03T20:35:15;21.90;70.70
43089;DHT22;28709;52.030;5.652;2022-09-03T20:40:27;21.80;71.10
43089;DHT22;28709;52.030;5.652;2022-09-03T20:48:48;21.60;71.50
43089;DHT22;28709;52.030;5.652;2022-09-03T20:51:20;21.60;72.00
43089;DHT22;28709;52.030;5.652;2022-09-03T20:54:27;21.50;72.00
43089;DHT22;28709;52.030;5.652;2022-09-03T21:02:48;21.30;72.70
43089;DHT22;28709;52.030;5.652;2022-09-03T21:05:37;21.20;73.00
43089;DHT22;28709;52.030;5.652;2022-09-03T21:10:42;21.10;73.40
43089;DHT22;28709;52.030;5.652;2022-09-03T21:13:39;21.00;73.60
43089;DHT22;28709;52.030;5.652;2022-09-03T21:24:25;20.90;74.00
43089;DHT22;28709;52.030;5.652;2022-09-03T21:26:58;20.90;74.20
43089;DHT22;28709;52.030;5.652;2022-09-03T21:29:33;20.80;74.30
43089;DHT22;28709;52.030;5.652;2022-09-03T21:32:30;20.80;74.60
43089;DHT22;28709;52.030;5.652;2022-09-03T21:35:18;20.80;75.00
43089;DHT22;28709;52.030;5.652;2022-09-03T21:37:59;20.70;75.10
43089;DHT22;28709;52.030;5.652;2022-09-03T21:40:28;20.60;75.30
43089;DHT22;28709;52.030;5.652;2022-09-03T21:43:08;20.60;75.50
43089;DHT22;28709;52.030;5.652;2022-09-03T21:48:30;20.50;76.70
43089;DHT22;28709;52.030;5.652;2022-09-03T21:53:47;20.40;76.30
43089;DHT22;28709;52.030;5.652;2022-09-03T22:02:19;20.30;76.90
43089;DHT22;28709;52.030;5.652;2022-09-03T22:04:48;20.30;77.10
43089;DHT22;28709;52.030;5.652;2022-09-03T22:10:02;20.20;77.30
43089;DHT22;28709;52.030;5.652;2022-09-03T22:14:56;20.10;77.50
43089;DHT22;28709;52.030;5.652;2022-09-03T22:17:34;20.10;77.60